ADDS TAF Board (Experimental) INFO Settings
IDs: Format: Expanded Condensed

KMSP - Minneapolis-St Paul, MN, US

Issued at 2102 UTC 24 May 2016
Updated at: 2129 UTC 24 May 2016
Time2053Z 24/22Z 24/23Z 25/00Z 25/01Z 25/02Z 25/03Z 25/04Z 25/05Z 25/06Z 25/07Z 25/08Z 25/09Z 25/10Z
Type OBS PRVL PRVL PRVL PRVL PRVL PRVL PRVL PRVL PRVL PRVL PRVL PRVL PRVL
VIS 10 >6 >6 >6 >6 >6 >6 >6 >6 >6 >6 >6 >6 >6
CIG -- 250 250 250 -- -- -- -- 250 250 250 250 250 250
Cover SCT BKN BKN BKN SCT SCT SCT SCT BKN BKN BKN BKN BKN BKN
FltCat VFR VFR VFR VFR VFR VFR VFR VFR VFR VFR VFR VFR VFR VFR
WX -- -- -- -- -- -- -- -- -- -- -- -- -- --
WDir 290 290 290 290 190 190 190 190 140 140 140 140 140 140
WSpd 8 8 8 8 6 6 6 6 4 4 4 4 4 4
WGst -- -- -- -- -- -- -- -- -- -- -- -- -- --
R04/22
XWnd 7 7 7 7 -3 -3 -3 -3 -4 -4 -4 -4 -4 -4
HWnd -3 -3 -3 -3 -5 -5 -5 -5 -0 -0 -0 -0 -0 -0
R12/30
XWnd -2 -2 -2 -2 -6 -6 -6 -6 -1 -1 -1 -1 -1 -1
HWnd -8 -8 -8 -8 2 2 2 2 4 4 4 4 4 4
R17/35
XWnd -7 -7 -7 -7 -2 -2 -2 -2 2 2 2 2 2 2
HWnd -4 -4 -4 -4 6 6 6 6 3 3 3 3 3 3

NOTE: TEMPO conditions in [brackets]. Keep in mind TEMPO conditions might be better (lower impact) than prevailing conditions.

Raw TAF
KMSP 242102Z 2421/2524 29008KT P6SM SCT050 BKN250
  FM250100 19006KT P6SM SCT250
  FM250500 14004KT P6SM SCT100 BKN250
  FM251400 11010KT 5SM -SHRA BR VCTS SCT025 OVC050CB
  FM251900 13011KT P6SM OVC100


Raw METAR
KMSP 242053Z 29008KT 10SM FEW070 FEW090 SCT300 28/11 A2988 RMK AO2 SLP113 CB DSNT W TCU DSNT S-SW T02830111 55003
KMSP 241953Z 30005KT 10SM SCT065 SCT250 29/13 A2988 RMK AO2 SLP112 CB DSNT W T02890128
KMSP 241853Z VRB05KT 10SM FEW050 SCT250 28/13 A2989 RMK AO2 SLP115 T02780128

METAR Board
Radar Display
Forecast Discussion

TAF Board Legend

Potential Impact
Threat None Slight Moderate High
Visibility (sm) ≥5.1 5.1>X≥3 3>X≥1 <1
Ceiling (100 ft) ≥30.1 30.1>X≥10 10>X≥5 <5
Wind Speed (kt) <10 10≤X<20 20≤X<30 ≥30
Wind Gust (kt) <15 15≤X<25 25≤X<35 ≥35
Weather No Wx Reported VCTS,-TS,-FZRA,SN TS,FZRA +TS,+FZRA,+SN